sensor_id;sensor_type;location;lat;lon;timestamp;P1;durP1;ratioP1;P2;durP2;ratioP2
59093;SDS011;44880;52.814;18.270;2023-03-19T00:00:53;41.20;;;22.00;;
59093;SDS011;44880;52.814;18.270;2023-03-19T00:03:39;41.50;;;22.00;;
59093;SDS011;44880;52.814;18.270;2023-03-19T00:06:09;42.50;;;22.60;;
59093;SDS011;44880;52.814;18.270;2023-03-19T00:08:39;46.20;;;23.20;;
59093;SDS011;44880;52.814;18.270;2023-03-19T00:11:08;45.10;;;23.40;;
59093;SDS011;44880;52.814;18.270;2023-03-19T00:13:38;47.90;;;24.60;;
59093;SDS011;44880;52.814;18.270;2023-03-19T00:16:08;41.90;;;23.20;;
59093;SDS011;44880;52.814;18.270;2023-03-19T00:18:37;45.00;;;22.80;;
59093;SDS011;44880;52.814;18.270;2023-03-19T00:21:06;46.80;;;23.90;;
59093;SDS011;44880;52.814;18.270;2023-03-19T00:23:35;44.80;;;23.10;;
59093;SDS011;44880;52.814;18.270;2023-03-19T00:26:04;49.50;;;23.60;;
59093;SDS011;44880;52.814;18.270;2023-03-19T00:28:33;44.30;;;22.80;;
59093;SDS011;44880;52.814;18.270;2023-03-19T00:31:06;44.60;;;23.90;;
59093;SDS011;44880;52.814;18.270;2023-03-19T00:33:36;44.40;;;24.40;;
59093;SDS011;44880;52.814;18.270;2023-03-19T00:36:06;45.90;;;23.50;;
59093;SDS011;44880;52.814;18.270;2023-03-19T00:38:36;45.40;;;23.80;;
59093;SDS011;44880;52.814;18.270;2023-03-19T00:41:06;42.70;;;23.60;;
59093;SDS011;44880;52.814;18.270;2023-03-19T00:43:35;42.70;;;22.90;;
59093;SDS011;44880;52.814;18.270;2023-03-19T00:46:04;43.40;;;22.50;;
59093;SDS011;44880;52.814;18.270;2023-03-19T00:48:33;40.90;;;21.60;;
59093;SDS011;44880;52.814;18.270;2023-03-19T00:51:03;39.20;;;23.10;;
59093;SDS011;44880;52.814;18.270;2023-03-19T00:53:36;45.40;;;24.30;;
59093;SDS011;44880;52.814;18.270;2023-03-19T00:56:06;42.70;;;24.20;;
59093;SDS011;44880;52.814;18.270;2023-03-19T00:58:35;42.40;;;22.60;;
59093;SDS011;44880;52.814;18.270;2023-03-19T01:01:06;41.90;;;22.80;;
59093;SDS011;44880;52.814;18.270;2023-03-19T01:03:36;36.90;;;21.80;;
59093;SDS011;44880;52.814;18.270;2023-03-19T01:06:06;39.70;;;21.60;;
59093;SDS011;44880;52.814;18.270;2023-03-19T01:08:35;41.90;;;22.10;;
59093;SDS011;44880;52.814;18.270;2023-03-19T01:11:05;40.20;;;22.40;;
59093;SDS011;44880;52.814;18.270;2023-03-19T01:14:00;42.00;;;24.30;;
59093;SDS011;44880;52.814;18.270;2023-03-19T01:16:29;42.00;;;22.40;;
59093;SDS011;44880;52.814;18.270;2023-03-19T01:19:00;41.20;;;22.70;;
59093;SDS011;44880;52.814;18.270;2023-03-19T01:21:29;41.30;;;23.00;;
59093;SDS011;44880;52.814;18.270;2023-03-19T01:23:58;42.80;;;23.50;;
59093;SDS011;44880;52.814;18.270;2023-03-19T01:26:28;41.40;;;22.00;;
59093;SDS011;44880;52.814;18.270;2023-03-19T01:29:07;41.90;;;22.80;;
59093;SDS011;44880;52.814;18.270;2023-03-19T01:31:36;43.80;;;23.80;;
59093;SDS011;44880;52.814;18.270;2023-03-19T01:34:41;40.60;;;21.50;;
59093;SDS011;44880;52.814;18.270;2023-03-19T01:37:13;45.90;;;22.90;;
59093;SDS011;44880;52.814;18.270;2023-03-19T01:39:42;44.40;;;22.50;;
59093;SDS011;44880;52.814;18.270;2023-03-19T01:42:13;42.80;;;21.20;;
59093;SDS011;44880;52.814;18.270;2023-03-19T01:45:03;43.70;;;22.10;;
59093;SDS011;44880;52.814;18.270;2023-03-19T01:48:07;42.60;;;21.70;;
59093;SDS011;44880;52.814;18.270;2023-03-19T01:50:58;38.70;;;22.60;;
59093;SDS011;44880;52.814;18.270;2023-03-19T01:53:46;43.30;;;22.30;;
59093;SDS011;44880;52.814;18.270;2023-03-19T01:56:42;41.60;;;22.50;;
59093;SDS011;44880;52.814;18.270;2023-03-19T01:59:26;48.00;;;23.70;;
59093;SDS011;44880;52.814;18.270;2023-03-19T02:02:17;43.30;;;22.80;;
59093;SDS011;44880;52.814;18.270;2023-03-19T02:04:51;42.50;;;22.00;;
59093;SDS011;44880;52.814;18.270;2023-03-19T02:07:23;42.40;;;22.40;;
59093;SDS011;44880;52.814;18.270;2023-03-19T02:09:53;39.10;;;21.30;;
59093;SDS011;44880;52.814;18.270;2023-03-19T02:12:22;41.80;;;20.50;;
59093;SDS011;44880;52.814;18.270;2023-03-19T02:14:51;39.50;;;22.80;;
59093;SDS011;44880;52.814;18.270;2023-03-19T02:17:20;40.60;;;23.20;;
59093;SDS011;44880;52.814;18.270;2023-03-19T02:19:50;42.80;;;22.70;;
59093;SDS011;44880;52.814;18.270;2023-03-19T02:22:24;40.20;;;22.80;;
59093;SDS011;44880;52.814;18.270;2023-03-19T02:24:56;42.30;;;21.60;;
59093;SDS011;44880;52.814;18.270;2023-03-19T02:27:29;43.60;;;22.40;;
59093;SDS011;44880;52.814;18.270;2023-03-19T02:29:58;43.80;;;24.00;;
59093;SDS011;44880;52.814;18.270;2023-03-19T02:32:27;41.50;;;22.10;;
59093;SDS011;44880;52.814;18.270;2023-03-19T02:34:56;43.80;;;23.60;;
59093;SDS011;44880;52.814;18.270;2023-03-19T02:37:25;43.60;;;22.80;;
59093;SDS011;44880;52.814;18.270;2023-03-19T02:39:56;44.60;;;22.60;;
59093;SDS011;44880;52.814;18.270;2023-03-19T02:42:30;41.20;;;22.70;;
59093;SDS011;44880;52.814;18.270;2023-03-19T02:44:59;42.80;;;22.50;;
59093;SDS011;44880;52.814;18.270;2023-03-19T02:47:28;42.80;;;22.60;;
59093;SDS011;44880;52.814;18.270;2023-03-19T02:49:57;38.60;;;21.50;;
59093;SDS011;44880;52.814;18.270;2023-03-19T02:52:26;47.90;;;24.30;;
59093;SDS011;44880;52.814;18.270;2023-03-19T02:54:55;46.50;;;25.70;;
59093;SDS011;44880;52.814;18.270;2023-03-19T02:57:24;46.70;;;25.20;;
59093;SDS011;44880;52.814;18.270;2023-03-19T02:59:53;44.30;;;22.50;;
59093;SDS011;44880;52.814;18.270;2023-03-19T03:02:22;43.60;;;23.80;;
59093;SDS011;44880;52.814;18.270;2023-03-19T03:04:51;46.60;;;22.50;;
59093;SDS011;44880;52.814;18.270;2023-03-19T03:07:20;45.90;;;24.70;;
59093;SDS011;44880;52.814;18.270;2023-03-19T03:09:49;44.70;;;25.50;;
59093;SDS011;44880;52.814;18.270;2023-03-19T03:12:18;47.50;;;24.20;;
59093;SDS011;44880;52.814;18.270;2023-03-19T03:14:47;42.50;;;24.50;;
59093;SDS011;44880;52.814;18.270;2023-03-19T03:17:16;42.70;;;24.00;;
59093;SDS011;44880;52.814;18.270;2023-03-19T03:19:45;44.80;;;24.00;;
59093;SDS011;44880;52.814;18.270;2023-03-19T03:22:14;43.50;;;24.30;;
59093;SDS011;44880;52.814;18.270;2023-03-19T03:24:43;42.20;;;23.20;;
59093;SDS011;44880;52.814;18.270;2023-03-19T03:27:12;47.50;;;24.00;;
59093;SDS011;44880;52.814;18.270;2023-03-19T03:29:41;43.30;;;23.40;;
59093;SDS011;44880;52.814;18.270;2023-03-19T03:32:10;45.20;;;24.10;;
59093;SDS011;44880;52.814;18.270;2023-03-19T03:34:40;45.10;;;24.10;;
59093;SDS011;44880;52.814;18.270;2023-03-19T03:37:09;40.50;;;22.10;;
59093;SDS011;44880;52.814;18.270;2023-03-19T03:39:37;42.20;;;24.60;;
59093;SDS011;44880;52.814;18.270;2023-03-19T03:42:06;46.50;;;23.60;;
59093;SDS011;44880;52.814;18.270;2023-03-19T03:44:36;46.10;;;24.40;;
59093;SDS011;44880;52.814;18.270;2023-03-19T03:47:05;42.60;;;23.20;;
59093;SDS011;44880;52.814;18.270;2023-03-19T03:49:35;41.80;;;22.90;;
59093;SDS011;44880;52.814;18.270;2023-03-19T03:52:04;46.00;;;25.00;;
59093;SDS011;44880;52.814;18.270;2023-03-19T03:54:35;44.80;;;25.30;;
59093;SDS011;44880;52.814;18.270;2023-03-19T03:57:04;43.70;;;24.80;;
59093;SDS011;44880;52.814;18.270;2023-03-19T03:59:34;43.50;;;23.60;;
59093;SDS011;44880;52.814;18.270;2023-03-19T04:02:03;44.60;;;23.50;;
59093;SDS011;44880;52.814;18.270;2023-03-19T04:04:33;45.30;;;24.60;;
59093;SDS011;44880;52.814;18.270;2023-03-19T04:07:02;42.90;;;24.50;;
59093;SDS011;44880;52.814;18.270;2023-03-19T04:09:39;42.40;;;24.70;;
59093;SDS011;44880;52.814;18.270;2023-03-19T04:12:08;43.80;;;25.30;;
59093;SDS011;44880;52.814;18.270;2023-03-19T04:14:38;44.50;;;25.20;;
59093;SDS011;44880;52.814;18.270;2023-03-19T04:17:07;42.40;;;25.00;;
59093;SDS011;44880;52.814;18.270;2023-03-19T04:19:36;42.10;;;24.60;;
59093;SDS011;44880;52.814;18.270;2023-03-19T04:22:06;40.70;;;24.30;;
59093;SDS011;44880;52.814;18.270;2023-03-19T04:24:35;43.40;;;26.10;;
59093;SDS011;44880;52.814;18.270;2023-03-19T04:27:04;43.90;;;25.20;;
59093;SDS011;44880;52.814;18.270;2023-03-19T04:29:35;45.50;;;26.30;;
59093;SDS011;44880;52.814;18.270;2023-03-19T04:32:05;45.50;;;26.50;;
59093;SDS011;44880;52.814;18.270;2023-03-19T04:34:35;42.70;;;24.10;;
59093;SDS011;44880;52.814;18.270;2023-03-19T04:37:04;47.90;;;26.00;;
59093;SDS011;44880;52.814;18.270;2023-03-19T04:39:33;45.20;;;25.70;;
59093;SDS011;44880;52.814;18.270;2023-03-19T04:42:03;47.90;;;26.70;;
59093;SDS011;44880;52.814;18.270;2023-03-19T04:44:41;45.90;;;27.20;;
59093;SDS011;44880;52.814;18.270;2023-03-19T04:47:11;46.10;;;26.60;;
59093;SDS011;44880;52.814;18.270;2023-03-19T04:49:50;47.60;;;26.10;;
59093;SDS011;44880;52.814;18.270;2023-03-19T04:52:19;44.10;;;26.40;;
59093;SDS011;44880;52.814;18.270;2023-03-19T04:54:49;44.70;;;26.50;;
59093;SDS011;44880;52.814;18.270;2023-03-19T04:57:18;54.60;;;28.20;;
59093;SDS011;44880;52.814;18.270;2023-03-19T04:59:47;55.50;;;28.30;;
59093;SDS011;44880;52.814;18.270;2023-03-19T05:02:16;57.60;;;27.90;;
59093;SDS011;44880;52.814;18.270;2023-03-19T05:04:45;53.40;;;26.70;;
59093;SDS011;44880;52.814;18.270;2023-03-19T05:07:15;40.60;;;25.60;;
59093;SDS011;44880;52.814;18.270;2023-03-19T05:09:44;42.20;;;24.90;;
59093;SDS011;44880;52.814;18.270;2023-03-19T05:12:14;43.20;;;24.70;;
59093;SDS011;44880;52.814;18.270;2023-03-19T05:17:23;45.40;;;24.30;;
59093;SDS011;44880;52.814;18.270;2023-03-19T05:20:11;46.30;;;24.40;;
59093;SDS011;44880;52.814;18.270;2023-03-19T05:22:47;44.00;;;24.60;;
59093;SDS011;44880;52.814;18.270;2023-03-19T05:25:16;44.50;;;25.40;;
59093;SDS011;44880;52.814;18.270;2023-03-19T05:27:45;44.90;;;25.00;;
59093;SDS011;44880;52.814;18.270;2023-03-19T05:30:20;44.30;;;25.50;;
59093;SDS011;44880;52.814;18.270;2023-03-19T05:33:01;42.30;;;24.40;;
59093;SDS011;44880;52.814;18.270;2023-03-19T05:35:39;45.40;;;24.40;;
59093;SDS011;44880;52.814;18.270;2023-03-19T05:38:14;46.40;;;25.90;;
59093;SDS011;44880;52.814;18.270;2023-03-19T05:40:45;40.40;;;24.50;;
59093;SDS011;44880;52.814;18.270;2023-03-19T05:43:22;44.80;;;25.50;;
59093;SDS011;44880;52.814;18.270;2023-03-19T05:45:52;51.30;;;27.20;;
59093;SDS011;44880;52.814;18.270;2023-03-19T05:48:24;47.70;;;28.50;;
59093;SDS011;44880;52.814;18.270;2023-03-19T05:50:53;53.00;;;28.20;;
59093;SDS011;44880;52.814;18.270;2023-03-19T05:53:23;47.10;;;27.50;;
59093;SDS011;44880;52.814;18.270;2023-03-19T05:56:18;49.00;;;26.60;;
59093;SDS011;44880;52.814;18.270;2023-03-19T05:59:06;44.30;;;27.50;;
59093;SDS011;44880;52.814;18.270;2023-03-19T06:01:37;56.00;;;32.50;;
59093;SDS011;44880;52.814;18.270;2023-03-19T06:04:06;54.60;;;31.90;;
59093;SDS011;44880;52.814;18.270;2023-03-19T06:06:35;55.50;;;34.10;;
59093;SDS011;44880;52.814;18.270;2023-03-19T06:09:06;56.80;;;36.40;;
59093;SDS011;44880;52.814;18.270;2023-03-19T06:11:39;57.00;;;32.80;;
59093;SDS011;44880;52.814;18.270;2023-03-19T06:14:44;51.10;;;30.80;;
59093;SDS011;44880;52.814;18.270;2023-03-19T06:17:34;54.00;;;31.20;;
59093;SDS011;44880;52.814;18.270;2023-03-19T06:20:07;50.50;;;32.80;;
59093;SDS011;44880;52.814;18.270;2023-03-19T06:22:39;52.10;;;31.10;;
59093;SDS011;44880;52.814;18.270;2023-03-19T06:25:08;52.40;;;30.50;;
59093;SDS011;44880;52.814;18.270;2023-03-19T06:27:38;48.30;;;28.80;;
59093;SDS011;44880;52.814;18.270;2023-03-19T06:30:18;46.40;;;28.30;;
59093;SDS011;44880;52.814;18.270;2023-03-19T06:32:47;53.10;;;28.90;;
59093;SDS011;44880;52.814;18.270;2023-03-19T06:35:16;45.20;;;27.30;;
59093;SDS011;44880;52.814;18.270;2023-03-19T06:37:47;47.60;;;27.90;;
59093;SDS011;44880;52.814;18.270;2023-03-19T06:40:16;46.80;;;27.50;;
59093;SDS011;44880;52.814;18.270;2023-03-19T06:42:46;49.90;;;26.80;;
59093;SDS011;44880;52.814;18.270;2023-03-19T06:45:16;41.60;;;25.30;;
59093;SDS011;44880;52.814;18.270;2023-03-19T06:47:45;52.60;;;27.50;;
59093;SDS011;44880;52.814;18.270;2023-03-19T06:50:14;46.80;;;27.40;;
59093;SDS011;44880;52.814;18.270;2023-03-19T06:52:44;45.90;;;27.20;;
59093;SDS011;44880;52.814;18.270;2023-03-19T06:55:13;46.60;;;26.80;;
59093;SDS011;44880;52.814;18.270;2023-03-19T06:57:42;45.30;;;25.80;;
59093;SDS011;44880;52.814;18.270;2023-03-19T07:00:13;40.40;;;24.70;;
59093;SDS011;44880;52.814;18.270;2023-03-19T07:02:44;41.60;;;26.50;;
59093;SDS011;44880;52.814;18.270;2023-03-19T07:05:13;38.30;;;24.90;;
59093;SDS011;44880;52.814;18.270;2023-03-19T07:07:42;39.30;;;23.30;;
59093;SDS011;44880;52.814;18.270;2023-03-19T07:10:11;35.70;;;22.60;;
59093;SDS011;44880;52.814;18.270;2023-03-19T07:12:40;41.60;;;24.60;;
59093;SDS011;44880;52.814;18.270;2023-03-19T07:15:09;40.40;;;25.30;;
59093;SDS011;44880;52.814;18.270;2023-03-19T07:17:39;40.30;;;25.10;;
59093;SDS011;44880;52.814;18.270;2023-03-19T07:20:10;38.00;;;24.40;;
59093;SDS011;44880;52.814;18.270;2023-03-19T07:22:40;41.30;;;24.30;;
59093;SDS011;44880;52.814;18.270;2023-03-19T07:25:09;37.30;;;24.10;;
59093;SDS011;44880;52.814;18.270;2023-03-19T07:27:38;38.70;;;23.60;;
59093;SDS011;44880;52.814;18.270;2023-03-19T07:30:08;37.70;;;24.10;;
59093;SDS011;44880;52.814;18.270;2023-03-19T07:32:38;36.90;;;23.70;;
59093;SDS011;44880;52.814;18.270;2023-03-19T07:35:09;36.80;;;23.10;;
59093;SDS011;44880;52.814;18.270;2023-03-19T07:37:37;38.00;;;23.50;;
59093;SDS011;44880;52.814;18.270;2023-03-19T07:40:08;38.40;;;24.50;;
59093;SDS011;44880;52.814;18.270;2023-03-19T07:42:38;81.50;;;46.60;;
59093;SDS011;44880;52.814;18.270;2023-03-19T07:45:08;48.10;;;30.30;;
59093;SDS011;44880;52.814;18.270;2023-03-19T07:47:37;40.40;;;27.00;;
59093;SDS011;44880;52.814;18.270;2023-03-19T07:50:07;41.70;;;26.80;;
59093;SDS011;44880;52.814;18.270;2023-03-19T07:52:38;39.30;;;26.60;;
59093;SDS011;44880;52.814;18.270;2023-03-19T07:55:07;42.10;;;26.50;;
59093;SDS011;44880;52.814;18.270;2023-03-19T07:57:37;39.80;;;26.20;;
59093;SDS011;44880;52.814;18.270;2023-03-19T08:00:08;39.60;;;26.60;;
59093;SDS011;44880;52.814;18.270;2023-03-19T08:02:43;36.90;;;25.80;;
59093;SDS011;44880;52.814;18.270;2023-03-19T08:05:12;39.10;;;28.10;;
59093;SDS011;44880;52.814;18.270;2023-03-19T08:07:42;38.00;;;25.80;;
59093;SDS011;44880;52.814;18.270;2023-03-19T08:10:11;37.80;;;24.90;;
59093;SDS011;44880;52.814;18.270;2023-03-19T08:12:40;37.70;;;26.60;;
59093;SDS011;44880;52.814;18.270;2023-03-19T08:15:10;38.10;;;27.30;;
59093;SDS011;44880;52.814;18.270;2023-03-19T08:17:42;36.00;;;26.30;;
59093;SDS011;44880;52.814;18.270;2023-03-19T08:20:24;44.10;;;26.70;;
59093;SDS011;44880;52.814;18.270;2023-03-19T08:22:53;36.40;;;25.40;;
59093;SDS011;44880;52.814;18.270;2023-03-19T08:25:23;35.60;;;26.30;;
59093;SDS011;44880;52.814;18.270;2023-03-19T08:27:53;39.20;;;27.40;;
59093;SDS011;44880;52.814;18.270;2023-03-19T08:30:22;36.00;;;25.80;;
59093;SDS011;44880;52.814;18.270;2023-03-19T08:32:51;34.40;;;25.20;;
59093;SDS011;44880;52.814;18.270;2023-03-19T08:35:20;35.30;;;25.20;;
59093;SDS011;44880;52.814;18.270;2023-03-19T08:37:49;34.10;;;24.20;;
59093;SDS011;44880;52.814;18.270;2023-03-19T08:40:18;32.80;;;24.20;;
59093;SDS011;44880;52.814;18.270;2023-03-19T08:42:47;32.80;;;25.70;;
59093;SDS011;44880;52.814;18.270;2023-03-19T08:45:17;35.10;;;25.70;;
59093;SDS011;44880;52.814;18.270;2023-03-19T08:47:47;35.90;;;24.30;;
59093;SDS011;44880;52.814;18.270;2023-03-19T08:50:16;36.50;;;25.10;;
59093;SDS011;44880;52.814;18.270;2023-03-19T08:52:45;36.70;;;25.00;;
59093;SDS011;44880;52.814;18.270;2023-03-19T08:55:14;33.90;;;24.50;;
59093;SDS011;44880;52.814;18.270;2023-03-19T08:57:44;32.90;;;22.70;;
59093;SDS011;44880;52.814;18.270;2023-03-19T09:00:14;34.40;;;22.60;;
59093;SDS011;44880;52.814;18.270;2023-03-19T09:02:45;33.10;;;23.70;;
59093;SDS011;44880;52.814;18.270;2023-03-19T09:05:16;37.90;;;25.20;;
59093;SDS011;44880;52.814;18.270;2023-03-19T09:10:16;35.90;;;25.90;;
59093;SDS011;44880;52.814;18.270;2023-03-19T09:12:45;36.30;;;25.70;;
59093;SDS011;44880;52.814;18.270;2023-03-19T09:15:14;35.70;;;25.90;;
59093;SDS011;44880;52.814;18.270;2023-03-19T09:17:43;33.70;;;25.60;;
59093;SDS011;44880;52.814;18.270;2023-03-19T09:20:12;33.00;;;23.60;;
59093;SDS011;44880;52.814;18.270;2023-03-19T09:22:42;35.70;;;24.90;;
59093;SDS011;44880;52.814;18.270;2023-03-19T09:25:11;32.10;;;24.10;;
59093;SDS011;44880;52.814;18.270;2023-03-19T09:27:40;32.20;;;23.90;;
59093;SDS011;44880;52.814;18.270;2023-03-19T09:30:10;38.40;;;25.70;;
59093;SDS011;44880;52.814;18.270;2023-03-19T09:35:09;35.30;;;25.80;;
59093;SDS011;44880;52.814;18.270;2023-03-19T09:37:38;36.00;;;27.70;;
59093;SDS011;44880;52.814;18.270;2023-03-19T09:40:08;36.30;;;27.60;;
59093;SDS011;44880;52.814;18.270;2023-03-19T09:42:51;38.60;;;28.80;;
59093;SDS011;44880;52.814;18.270;2023-03-19T09:45:26;36.50;;;28.50;;
59093;SDS011;44880;52.814;18.270;2023-03-19T09:47:57;36.70;;;28.50;;
59093;SDS011;44880;52.814;18.270;2023-03-19T09:50:30;38.30;;;29.10;;
59093;SDS011;44880;52.814;18.270;2023-03-19T09:53:02;37.10;;;29.60;;
59093;SDS011;44880;52.814;18.270;2023-03-19T09:55:37;35.40;;;27.80;;
59093;SDS011;44880;52.814;18.270;2023-03-19T09:58:11;34.20;;;26.20;;
59093;SDS011;44880;52.814;18.270;2023-03-19T10:00:43;32.50;;;25.10;;
59093;SDS011;44880;52.814;18.270;2023-03-19T10:03:21;34.90;;;26.80;;
59093;SDS011;44880;52.814;18.270;2023-03-19T10:06:01;33.00;;;25.60;;
59093;SDS011;44880;52.814;18.270;2023-03-19T10:08:48;29.50;;;23.60;;
59093;SDS011;44880;52.814;18.270;2023-03-19T10:11:30;39.00;;;29.50;;
59093;SDS011;44880;52.814;18.270;2023-03-19T10:14:11;32.60;;;23.90;;
59093;SDS011;44880;52.814;18.270;2023-03-19T10:16:49;33.60;;;23.80;;
59093;SDS011;44880;52.814;18.270;2023-03-19T10:19:21;34.50;;;25.10;;
59093;SDS011;44880;52.814;18.270;2023-03-19T10:21:56;30.70;;;23.20;;
59093;SDS011;44880;52.814;18.270;2023-03-19T10:24:29;31.00;;;22.70;;
59093;SDS011;44880;52.814;18.270;2023-03-19T10:27:00;29.50;;;23.70;;
59093;SDS011;44880;52.814;18.270;2023-03-19T10:29:35;32.10;;;24.30;;
59093;SDS011;44880;52.814;18.270;2023-03-19T10:32:09;30.30;;;23.30;;
59093;SDS011;44880;52.814;18.270;2023-03-19T10:34:45;40.40;;;30.90;;
59093;SDS011;44880;52.814;18.270;2023-03-19T10:37:16;31.60;;;24.40;;
59093;SDS011;44880;52.814;18.270;2023-03-19T10:39:47;31.70;;;23.00;;
59093;SDS011;44880;52.814;18.270;2023-03-19T10:42:24;30.60;;;24.20;;
59093;SDS011;44880;52.814;18.270;2023-03-19T10:45:12;31.00;;;23.40;;
59093;SDS011;44880;52.814;18.270;2023-03-19T10:47:47;31.00;;;23.90;;
59093;SDS011;44880;52.814;18.270;2023-03-19T10:50:17;32.00;;;22.90;;
59093;SDS011;44880;52.814;18.270;2023-03-19T10:52:49;28.40;;;20.90;;
59093;SDS011;44880;52.814;18.270;2023-03-19T10:55:23;28.60;;;21.60;;
59093;SDS011;44880;52.814;18.270;2023-03-19T10:58:00;27.90;;;20.50;;
59093;SDS011;44880;52.814;18.270;2023-03-19T11:00:31;28.70;;;21.40;;
59093;SDS011;44880;52.814;18.270;2023-03-19T11:03:01;27.70;;;18.80;;
59093;SDS011;44880;52.814;18.270;2023-03-19T11:05:32;30.80;;;20.30;;
59093;SDS011;44880;52.814;18.270;2023-03-19T11:08:02;28.40;;;18.70;;
59093;SDS011;44880;52.814;18.270;2023-03-19T11:10:32;33.40;;;24.90;;
59093;SDS011;44880;52.814;18.270;2023-03-19T11:13:03;28.10;;;20.10;;
59093;SDS011;44880;52.814;18.270;2023-03-19T11:15:33;28.90;;;21.10;;
59093;SDS011;44880;52.814;18.270;2023-03-19T11:18:07;29.60;;;20.00;;
59093;SDS011;44880;52.814;18.270;2023-03-19T11:20:48;28.80;;;19.80;;
59093;SDS011;44880;52.814;18.270;2023-03-19T11:23:25;27.30;;;19.40;;
59093;SDS011;44880;52.814;18.270;2023-03-19T11:25:59;27.50;;;19.40;;
59093;SDS011;44880;52.814;18.270;2023-03-19T11:28:28;25.20;;;18.70;;
59093;SDS011;44880;52.814;18.270;2023-03-19T11:31:01;29.00;;;20.70;;
59093;SDS011;44880;52.814;18.270;2023-03-19T11:33:41;26.40;;;18.30;;
59093;SDS011;44880;52.814;18.270;2023-03-19T11:36:20;25.50;;;18.00;;
59093;SDS011;44880;52.814;18.270;2023-03-19T11:39:02;28.20;;;19.60;;
59093;SDS011;44880;52.814;18.270;2023-03-19T11:41:45;27.20;;;20.20;;
59093;SDS011;44880;52.814;18.270;2023-03-19T11:44:21;25.70;;;19.60;;
59093;SDS011;44880;52.814;18.270;2023-03-19T11:46:54;27.10;;;19.70;;
59093;SDS011;44880;52.814;18.270;2023-03-19T11:52:34;28.70;;;21.40;;
59093;SDS011;44880;52.814;18.270;2023-03-19T11:55:16;31.20;;;24.00;;
59093;SDS011;44880;52.814;18.270;2023-03-19T11:57:52;30.20;;;22.40;;
59093;SDS011;44880;52.814;18.270;2023-03-19T12:06:32;30.40;;;22.80;;
59093;SDS011;44880;52.814;18.270;2023-03-19T12:09:08;27.80;;;20.00;;
59093;SDS011;44880;52.814;18.270;2023-03-19T12:11:42;35.10;;;24.10;;
59093;SDS011;44880;52.814;18.270;2023-03-19T12:14:23;32.70;;;23.90;;
59093;SDS011;44880;52.814;18.270;2023-03-19T12:17:05;27.10;;;20.00;;
59093;SDS011;44880;52.814;18.270;2023-03-19T12:19:50;28.30;;;20.10;;
59093;SDS011;44880;52.814;18.270;2023-03-19T12:22:27;26.20;;;19.40;;
59093;SDS011;44880;52.814;18.270;2023-03-19T12:25:08;26.70;;;18.30;;
59093;SDS011;44880;52.814;18.270;2023-03-19T12:27:53;25.10;;;18.70;;
59093;SDS011;44880;52.814;18.270;2023-03-19T12:30:28;28.00;;;19.70;;
59093;SDS011;44880;52.814;18.270;2023-03-19T12:33:05;25.50;;;19.00;;
59093;SDS011;44880;52.814;18.270;2023-03-19T12:35:42;30.40;;;20.40;;
59093;SDS011;44880;52.814;18.270;2023-03-19T12:38:17;28.00;;;20.20;;
59093;SDS011;44880;52.814;18.270;2023-03-19T12:40:50;32.40;;;21.50;;
59093;SDS011;44880;52.814;18.270;2023-03-19T12:43:22;29.80;;;19.40;;
59093;SDS011;44880;52.814;18.270;2023-03-19T12:45:55;28.40;;;19.70;;
59093;SDS011;44880;52.814;18.270;2023-03-19T12:48:27;28.90;;;19.90;;
59093;SDS011;44880;52.814;18.270;2023-03-19T12:51:00;32.80;;;21.00;;
59093;SDS011;44880;52.814;18.270;2023-03-19T12:53:34;28.10;;;20.40;;
59093;SDS011;44880;52.814;18.270;2023-03-19T12:56:16;27.00;;;19.30;;
59093;SDS011;44880;52.814;18.270;2023-03-19T12:58:52;27.40;;;19.50;;
59093;SDS011;44880;52.814;18.270;2023-03-19T13:01:24;30.90;;;19.00;;
59093;SDS011;44880;52.814;18.270;2023-03-19T13:04:01;29.70;;;19.80;;
59093;SDS011;44880;52.814;18.270;2023-03-19T13:06:37;41.90;;;31.90;;
59093;SDS011;44880;52.814;18.270;2023-03-19T13:09:12;37.20;;;27.50;;
59093;SDS011;44880;52.814;18.270;2023-03-19T13:11:45;26.90;;;18.90;;
59093;SDS011;44880;52.814;18.270;2023-03-19T13:14:20;29.50;;;19.70;;
59093;SDS011;44880;52.814;18.270;2023-03-19T13:16:59;28.30;;;19.00;;
59093;SDS011;44880;52.814;18.270;2023-03-19T13:19:54;36.20;;;25.50;;
59093;SDS011;44880;52.814;18.270;2023-03-19T13:22:24;32.80;;;21.90;;
59093;SDS011;44880;52.814;18.270;2023-03-19T13:24:55;32.20;;;23.00;;
59093;SDS011;44880;52.814;18.270;2023-03-19T13:27:31;31.10;;;22.10;;
59093;SDS011;44880;52.814;18.270;2023-03-19T13:30:06;30.70;;;22.20;;
59093;SDS011;44880;52.814;18.270;2023-03-19T13:32:44;28.70;;;19.80;;
59093;SDS011;44880;52.814;18.270;2023-03-19T13:37:56;29.30;;;19.90;;
59093;SDS011;44880;52.814;18.270;2023-03-19T13:40:38;31.00;;;21.00;;
59093;SDS011;44880;52.814;18.270;2023-03-19T13:43:38;32.20;;;19.70;;
59093;SDS011;44880;52.814;18.270;2023-03-19T13:51:54;26.60;;;17.90;;
59093;SDS011;44880;52.814;18.270;2023-03-19T13:54:33;29.40;;;19.20;;
59093;SDS011;44880;52.814;18.270;2023-03-19T13:57:05;33.80;;;22.10;;
59093;SDS011;44880;52.814;18.270;2023-03-19T14:03:20;45.70;;;26.00;;
59093;SDS011;44880;52.814;18.270;2023-03-19T14:05:55;30.40;;;19.70;;
59093;SDS011;44880;52.814;18.270;2023-03-19T14:08:25;26.90;;;18.40;;
59093;SDS011;44880;52.814;18.270;2023-03-19T14:10:59;27.50;;;18.90;;
59093;SDS011;44880;52.814;18.270;2023-03-19T14:13:35;30.10;;;19.70;;
59093;SDS011;44880;52.814;18.270;2023-03-19T14:16:10;28.20;;;18.60;;
59093;SDS011;44880;52.814;18.270;2023-03-19T14:18:43;27.80;;;18.80;;
59093;SDS011;44880;52.814;18.270;2023-03-19T14:21:14;31.40;;;19.70;;
59093;SDS011;44880;52.814;18.270;2023-03-19T14:23:51;28.90;;;19.70;;
59093;SDS011;44880;52.814;18.270;2023-03-19T14:26:22;26.60;;;18.40;;
59093;SDS011;44880;52.814;18.270;2023-03-19T14:28:59;27.50;;;18.30;;
59093;SDS011;44880;52.814;18.270;2023-03-19T14:31:39;28.70;;;19.20;;
59093;SDS011;44880;52.814;18.270;2023-03-19T14:34:15;27.10;;;18.00;;
59093;SDS011;44880;52.814;18.270;2023-03-19T14:36:50;28.10;;;19.80;;
59093;SDS011;44880;52.814;18.270;2023-03-19T14:39:29;28.60;;;19.30;;
59093;SDS011;44880;52.814;18.270;2023-03-19T14:42:02;27.90;;;18.60;;
59093;SDS011;44880;52.814;18.270;2023-03-19T14:44:43;27.40;;;18.80;;
59093;SDS011;44880;52.814;18.270;2023-03-19T14:47:57;29.20;;;18.90;;
59093;SDS011;44880;52.814;18.270;2023-03-19T14:50:50;29.40;;;18.50;;
59093;SDS011;44880;52.814;18.270;2023-03-19T14:53:32;30.80;;;19.90;;
59093;SDS011;44880;52.814;18.270;2023-03-19T14:56:12;30.30;;;19.40;;
59093;SDS011;44880;52.814;18.270;2023-03-19T14:58:48;25.30;;;16.90;;
59093;SDS011;44880;52.814;18.270;2023-03-19T15:01:21;27.60;;;16.60;;
59093;SDS011;44880;52.814;18.270;2023-03-19T15:03:54;25.80;;;16.10;;
59093;SDS011;44880;52.814;18.270;2023-03-19T15:06:31;26.60;;;16.20;;
59093;SDS011;44880;52.814;18.270;2023-03-19T15:09:05;29.30;;;18.50;;
59093;SDS011;44880;52.814;18.270;2023-03-19T15:11:45;27.70;;;17.20;;